Time,TemperatureF,DewpointF,PressureIn,WindDirection,WindDirectionDegrees,WindSpeedMPH,WindSpeedGustMPH,Humidity,HourlyPrecipIn,Conditions,Clouds,dailyrainin,SolarRadiationWatts/m^2,SoftwareType,DateUTC
2013-02-23 00:02:00,47.1,44.0,30.19,SW,217,0.0,1.0,89,0.00,,,0.00,0,HR-IXP-WINDi_r2_v1.2,2013-02-23 08:02:00,
2013-02-23 00:08:00,46.9,43.8,30.19,SW,217,1.0,2.0,89,0.00,,,0.00,0,HR-IXP-WINDi_r2_v1.2,2013-02-23 08:08:00,
2013-02-23 00:13:00,46.9,44.1,30.19,SW,217,0.0,2.0,90,0.00,,,0.00,0,HR-IXP-WINDi_r2_v1.2,2013-02-23 08:13:00,
2013-02-23 00:18:00,46.9,44.1,30.19,SW,217,0.0,2.0,90,0.00,,,0.00,0,HR-IXP-WINDi_r2_v1.2,2013-02-23 08:18:00,
2013-02-23 00:23:00,46.9,44.1,30.19,SW,217,0.0,0.0,90,0.00,,,0.00,0,HR-IXP-WINDi_r2_v1.2,2013-02-23 08:23:00,
2013-02-23 00:28:00,46.9,44.1,30.19,SW,217,0.0,0.0,90,0.00,,,0.00,0,HR-IXP-WINDi_r2_v1.2,2013-02-23 08:28:00,
2013-02-23 00:34:00,46.7,43.9,30.19,SW,217,0.0,0.0,90,0.00,,,0.00,0,HR-IXP-WINDi_r2_v1.2,2013-02-23 08:34:00,
2013-02-23 00:39:00,46.8,44.0,30.19,SW,217,0.0,0.0,90,0.00,,,0.00,0,HR-IXP-WINDi_r2_v1.2,2013-02-23 08:39:00,
2013-02-23 00:44:00,46.7,43.9,30.19,SW,217,0.0,0.0,90,0.00,,,0.00,0,HR-IXP-WINDi_r2_v1.2,2013-02-23 08:44:00,
2013-02-23 00:49:00,46.0,43.2,30.19,SW,217,0.0,0.0,90,0.00,,,0.00,0,HR-IXP-WINDi_r2_v1.2,2013-02-23 08:49:00,
2013-02-23 00:54:00,46.0,43.2,30.19,SW,217,1.0,2.0,90,0.00,,,0.00,0,HR-IXP-WINDi_r2_v1.2,2013-02-23 08:54:00,
2013-02-23 01:00:00,45.5,42.4,30.19,SW,217,0.0,2.0,89,0.00,,,0.00,0,HR-IXP-WINDi_r2_v1.2,2013-02-23 09:00:00,
2013-02-23 01:05:00,45.9,42.8,30.19,SW,217,0.0,2.0,89,0.00,,,0.00,0,HR-IXP-WINDi_r2_v1.2,2013-02-23 09:05:00,
2013-02-23 01:10:00,46.1,42.7,30.18,SW,217,0.0,1.0,88,0.00,,,0.00,0,HR-IXP-WINDi_r2_v1.2,2013-02-23 09:10:00,
2013-02-23 01:15:00,46.0,42.3,30.19,SW,217,0.0,0.0,87,0.00,,,0.00,0,HR-IXP-WINDi_r2_v1.2,2013-02-23 09:15:00,
2013-02-23 01:21:00,45.9,42.2,30.18,SW,217,0.0,0.0,87,0.00,,,0.00,0,HR-IXP-WINDi_r2_v1.2,2013-02-23 09:21:00,
2013-02-23 01:26:00,45.5,41.8,30.18,SW,217,0.0,0.0,87,0.00,,,0.00,0,HR-IXP-WINDi_r2_v1.2,2013-02-23 09:26:00,
2013-02-23 01:31:00,45.5,41.8,30.18,SW,217,0.0,0.0,87,0.00,,,0.00,0,HR-IXP-WINDi_r2_v1.2,2013-02-23 09:31:00,
2013-02-23 01:36:00,45.2,41.2,30.17,SW,217,0.0,0.0,86,0.00,,,0.00,0,HR-IXP-WINDi_r2_v1.2,2013-02-23 09:36:00,
2013-02-23 01:41:00,45.1,41.1,30.17,SW,217,0.0,0.0,86,0.00,,,0.00,0,HR-IXP-WINDi_r2_v1.2,2013-02-23 09:41:00,
2013-02-23 01:47:00,45.2,41.2,30.17,SW,217,0.0,0.0,86,0.00,,,0.00,0,HR-IXP-WINDi_r2_v1.2,2013-02-23 09:47:00,
2013-02-23 01:52:00,45.0,41.0,30.17,SW,217,0.0,0.0,86,0.00,,,0.00,0,HR-IXP-WINDi_r2_v1.2,2013-02-23 09:52:00,
2013-02-23 01:57:00,44.5,40.5,30.16,SW,217,0.0,1.0,86,0.00,,,0.00,0,HR-IXP-WINDi_r2_v1.2,2013-02-23 09:57:00,
2013-02-23 02:02:00,44.5,40.8,30.16,SW,217,0.0,1.0,87,0.00,,,0.00,0,HR-IXP-WINDi_r2_v1.2,2013-02-23 10:02:00,
2013-02-23 02:08:00,44.3,40.3,30.16,SW,217,0.0,0.0,86,0.00,,,0.00,0,HR-IXP-WINDi_r2_v1.2,2013-02-23 10:08:00,
2013-02-23 02:13:00,44.1,40.4,30.16,SW,217,0.0,0.0,87,0.00,,,0.00,0,HR-IXP-WINDi_r2_v1.2,2013-02-23 10:13:00,
2013-02-23 02:18:00,44.1,40.4,30.15,SW,217,0.0,0.0,87,0.00,,,0.00,0,HR-IXP-WINDi_r2_v1.2,2013-02-23 10:18:00,
2013-02-23 02:23:00,44.2,40.5,30.15,SW,217,0.0,0.0,87,0.00,,,0.00,0,HR-IXP-WINDi_r2_v1.2,2013-02-23 10:23:00,
2013-02-23 02:28:00,44.4,40.7,30.15,SW,217,0.0,1.0,87,0.00,,,0.00,0,HR-IXP-WINDi_r2_v1.2,2013-02-23 10:28:00,
2013-02-23 02:34:00,44.3,40.6,30.16,SW,217,0.0,1.0,87,0.00,,,0.00,0,HR-IXP-WINDi_r2_v1.2,2013-02-23 10:34:00,
2013-02-23 02:39:00,44.4,41.0,30.16,SW,217,0.0,1.0,88,0.00,,,0.00,0,HR-IXP-WINDi_r2_v1.2,2013-02-23 10:39:00,
2013-02-23 02:44:00,44.5,41.1,30.16,SW,217,0.0,1.0,88,0.00,,,0.00,0,HR-IXP-WINDi_r2_v1.2,2013-02-23 10:44:00,
2013-02-23 02:49:00,44.5,41.1,30.15,SW,217,0.0,1.0,88,0.00,,,0.00,0,HR-IXP-WINDi_r2_v1.2,2013-02-23 10:49:00,
2013-02-23 02:54:00,44.2,40.8,30.15,SW,217,0.0,0.0,88,0.00,,,0.00,0,HR-IXP-WINDi_r2_v1.2,2013-02-23 10:54:00,
2013-02-23 02:59:00,43.9,40.5,30.15,SW,217,0.0,0.0,88,0.00,,,0.00,0,HR-IXP-WINDi_r2_v1.2,2013-02-23 10:59:00,
2013-02-23 03:04:00,43.9,40.5,30.15,SW,217,0.0,0.0,88,0.00,,,0.00,0,HR-IXP-WINDi_r2_v1.2,2013-02-23 11:04:00,
2013-02-23 03:10:00,43.8,40.4,30.15,SW,217,0.0,0.0,88,0.00,,,0.00,0,HR-IXP-WINDi_r2_v1.2,2013-02-23 11:10:00,
2013-02-23 03:15:00,43.8,40.4,30.15,SW,217,0.0,0.0,88,0.00,,,0.00,0,HR-IXP-WINDi_r2_v1.2,2013-02-23 11:15:00,
2013-02-23 03:20:00,44.1,40.7,30.16,SW,217,0.0,0.0,88,0.00,,,0.00,0,HR-IXP-WINDi_r2_v1.2,2013-02-23 11:20:00,
2013-02-23 03:26:00,43.8,40.4,30.16,SW,217,0.0,0.0,88,0.00,,,0.00,0,HR-IXP-WINDi_r2_v1.2,2013-02-23 11:26:00,
2013-02-23 03:31:00,43.8,40.1,30.16,SW,217,0.0,1.0,87,0.00,,,0.00,0,HR-IXP-WINDi_r2_v1.2,2013-02-23 11:31:00,
2013-02-23 03:36:00,43.8,40.1,30.16,SW,217,0.0,1.0,87,0.00,,,0.00,0,HR-IXP-WINDi_r2_v1.2,2013-02-23 11:36:00,
2013-02-23 03:41:00,43.6,39.9,30.16,SW,217,0.0,1.0,87,0.00,,,0.00,0,HR-IXP-WINDi_r2_v1.2,2013-02-23 11:41:00,
2013-02-23 03:46:00,43.4,39.7,30.16,SW,217,0.0,1.0,87,0.00,,,0.00,0,HR-IXP-WINDi_r2_v1.2,2013-02-23 11:46:00,
2013-02-23 03:52:00,43.3,39.6,30.16,SW,217,0.0,2.0,87,0.00,,,0.00,0,HR-IXP-WINDi_r2_v1.2,2013-02-23 11:52:00,
2013-02-23 03:57:00,43.6,39.9,30.16,SW,217,0.0,2.0,87,0.00,,,0.00,0,HR-IXP-WINDi_r2_v1.2,2013-02-23 11:57:00,
2013-02-23 04:02:00,43.4,39.7,30.16,SW,217,0.0,0.0,87,0.00,,,0.00,0,HR-IXP-WINDi_r2_v1.2,2013-02-23 12:02:00,
2013-02-23 04:07:00,43.2,39.5,30.16,SW,217,0.0,1.0,87,0.00,,,0.00,0,HR-IXP-WINDi_r2_v1.2,2013-02-23 12:07:00,
2013-02-23 04:12:00,43.1,39.2,30.16,SW,217,0.0,1.0,86,0.00,,,0.00,0,HR-IXP-WINDi_r2_v1.2,2013-02-23 12:12:00,
2013-02-23 04:17:00,42.5,38.6,30.15,SW,217,0.0,1.0,86,0.00,,,0.00,0,HR-IXP-WINDi_r2_v1.2,2013-02-23 12:17:00,
2013-02-23 04:22:00,42.7,39.1,30.15,SW,217,0.0,1.0,87,0.00,,,0.00,0,HR-IXP-WINDi_r2_v1.2,2013-02-23 12:22:00,
2013-02-23 04:28:00,42.4,38.8,30.15,SW,217,0.0,0.0,87,0.00,,,0.00,0,HR-IXP-WINDi_r2_v1.2,2013-02-23 12:28:00,
2013-02-23 04:33:00,42.3,38.7,30.15,SW,217,0.0,0.0,87,0.00,,,0.00,0,HR-IXP-WINDi_r2_v1.2,2013-02-23 12:33:00,
2013-02-23 04:38:00,42.5,39.1,30.16,SW,217,0.0,0.0,88,0.00,,,0.00,0,HR-IXP-WINDi_r2_v1.2,2013-02-23 12:38:00,
2013-02-23 04:43:00,42.0,38.4,30.15,SW,217,0.0,0.0,87,0.00,,,0.00,0,HR-IXP-WINDi_r2_v1.2,2013-02-23 12:43:00,
2013-02-23 04:48:00,42.0,38.7,30.15,SW,217,0.0,1.0,88,0.00,,,0.00,0,HR-IXP-WINDi_r2_v1.2,2013-02-23 12:48:00,
2013-02-23 04:53:00,42.0,38.7,30.15,SW,217,0.0,1.0,88,0.00,,,0.00,0,HR-IXP-WINDi_r2_v1.2,2013-02-23 12:53:00,
2013-02-23 04:58:00,42.0,38.7,30.15,SW,217,0.0,0.0,88,0.00,,,0.00,0,HR-IXP-WINDi_r2_v1.2,2013-02-23 12:58:00,
2013-02-23 05:04:00,41.9,38.6,30.14,SW,217,0.0,0.0,88,0.00,,,0.00,0,HR-IXP-WINDi_r2_v1.2,2013-02-23 13:04:00,
2013-02-23 05:09:00,41.4,37.8,30.14,SW,217,0.0,1.0,87,0.00,,,0.00,0,HR-IXP-WINDi_r2_v1.2,2013-02-23 13:09:00,
2013-02-23 05:14:00,41.6,38.3,30.14,SW,217,0.0,1.0,88,0.00,,,0.00,0,HR-IXP-WINDi_r2_v1.2,2013-02-23 13:14:00,
2013-02-23 05:19:00,41.8,38.7,30.14,SW,217,0.0,0.0,89,0.00,,,0.00,0,HR-IXP-WINDi_r2_v1.2,2013-02-23 13:19:00,
2013-02-23 05:24:00,41.6,38.3,30.14,SW,217,0.0,0.0,88,0.00,,,0.00,0,HR-IXP-WINDi_r2_v1.2,2013-02-23 13:24:00,
2013-02-23 05:29:00,41.5,38.2,30.14,SW,217,0.0,0.0,88,0.00,,,0.00,0,HR-IXP-WINDi_r2_v1.2,2013-02-23 13:29:00,
2013-02-23 05:35:00,41.4,38.1,30.14,SW,217,0.0,1.0,88,0.00,,,0.00,0,HR-IXP-WINDi_r2_v1.2,2013-02-23 13:35:00,
2013-02-23 05:40:00,41.5,38.5,30.14,SW,217,0.0,0.0,89,0.00,,,0.00,0,HR-IXP-WINDi_r2_v1.2,2013-02-23 13:40:00,
2013-02-23 05:45:00,41.5,38.2,30.14,SW,217,0.0,1.0,88,0.00,,,0.00,0,HR-IXP-WINDi_r2_v1.2,2013-02-23 13:45:00,
2013-02-23 05:50:00,41.4,38.1,30.14,SW,217,0.0,1.0,88,0.00,,,0.00,0,HR-IXP-WINDi_r2_v1.2,2013-02-23 13:50:00,
2013-02-23 05:55:00,41.3,38.0,30.14,SW,217,0.0,1.0,88,0.00,,,0.00,0,HR-IXP-WINDi_r2_v1.2,2013-02-23 13:55:00,
2013-02-23 06:01:00,41.2,37.9,30.14,SW,217,0.0,0.0,88,0.00,,,0.00,0,HR-IXP-WINDi_r2_v1.2,2013-02-23 14:01:00,
2013-02-23 06:06:00,41.2,37.9,30.14,SW,217,0.0,0.0,88,0.00,,,0.00,0,HR-IXP-WINDi_r2_v1.2,2013-02-23 14:06:00,
2013-02-23 06:11:00,41.3,38.0,30.14,SW,217,0.0,0.0,88,0.00,,,0.00,0,HR-IXP-WINDi_r2_v1.2,2013-02-23 14:11:00,
2013-02-23 06:16:00,41.2,37.9,30.14,SW,217,0.0,0.0,88,0.00,,,0.00,0,HR-IXP-WINDi_r2_v1.2,2013-02-23 14:16:00,
2013-02-23 06:22:00,41.4,38.1,30.14,SW,217,0.0,1.0,88,0.00,,,0.00,0,HR-IXP-WINDi_r2_v1.2,2013-02-23 14:22:00,
2013-02-23 06:27:00,41.5,37.9,30.14,SW,217,0.0,1.0,87,0.00,,,0.00,0,HR-IXP-WINDi_r2_v1.2,2013-02-23 14:27:00,
2013-02-23 06:32:00,41.6,38.0,30.14,SW,217,0.0,1.0,87,0.00,,,0.00,7,HR-IXP-WINDi_r2_v1.2,2013-02-23 14:32:00,
2013-02-23 06:37:00,41.3,37.4,30.14,SW,217,0.0,0.0,86,0.00,,,0.00,9,HR-IXP-WINDi_r2_v1.2,2013-02-23 14:37:00,
2013-02-23 06:42:00,41.0,37.4,30.15,SW,217,0.0,0.0,87,0.00,,,0.00,16,HR-IXP-WINDi_r2_v1.2,2013-02-23 14:42:00,
2013-02-23 06:47:00,41.1,37.5,30.15,SW,217,0.0,1.0,87,0.00,,,0.00,19,HR-IXP-WINDi_r2_v1.2,2013-02-23 14:47:00,
2013-02-23 06:52:00,41.4,38.1,30.15,SW,217,0.0,1.0,88,0.00,,,0.00,26,HR-IXP-WINDi_r2_v1.2,2013-02-23 14:52:00,
2013-02-23 06:58:00,41.9,38.3,30.15,SW,217,0.0,1.0,87,0.00,,,0.00,32,HR-IXP-WINDi_r2_v1.2,2013-02-23 14:58:00,
2013-02-23 07:03:00,42.2,38.6,30.15,SW,217,0.0,0.0,87,0.00,,,0.00,39,HR-IXP-WINDi_r2_v1.2,2013-02-23 15:03:00,
2013-02-23 07:08:00,42.6,38.7,30.16,SW,217,0.0,1.0,86,0.00,,,0.00,46,HR-IXP-WINDi_r2_v1.2,2013-02-23 15:08:00,
2013-02-23 07:13:00,43.0,39.1,30.15,SW,217,0.0,2.0,86,0.00,,,0.00,51,HR-IXP-WINDi_r2_v1.2,2013-02-23 15:13:00,
2013-02-23 07:19:00,43.4,39.1,30.15,South,171,0.0,2.0,85,0.00,,,0.00,58,HR-IXP-WINDi_r2_v1.2,2013-02-23 15:19:00,
2013-02-23 07:24:00,43.9,39.3,30.15,SSE,165,0.0,3.0,84,0.00,,,0.00,63,HR-IXP-WINDi_r2_v1.2,2013-02-23 15:24:00,
2013-02-23 07:29:00,45.0,40.4,30.14,SSE,165,1.0,3.0,84,0.00,,,0.00,77,HR-IXP-WINDi_r2_v1.2,2013-02-23 15:29:00,
2013-02-23 07:34:00,45.7,40.8,30.14,SSE,165,2.0,2.0,83,0.00,,,0.00,81,HR-IXP-WINDi_r2_v1.2,2013-02-23 15:34:00,
2013-02-23 07:39:00,46.4,41.2,30.14,SSE,165,0.0,2.0,82,0.00,,,0.00,105,HR-IXP-WINDi_r2_v1.2,2013-02-23 15:39:00,
2013-02-23 07:45:00,46.8,41.2,30.15,SSE,165,0.0,2.0,81,0.00,,,0.00,118,HR-IXP-WINDi_r2_v1.2,2013-02-23 15:45:00,
2013-02-23 07:50:00,47.1,40.9,30.16,SSE,165,2.0,3.0,79,0.00,,,0.00,130,HR-IXP-WINDi_r2_v1.2,2013-02-23 15:50:00,
2013-02-23 07:55:00,47.6,41.0,30.17,SSE,159,1.0,3.0,78,0.00,,,0.00,141,HR-IXP-WINDi_r2_v1.2,2013-02-23 15:55:00,
2013-02-23 08:00:00,48.3,41.0,30.16,SSE,159,1.0,3.0,76,0.00,,,0.00,153,HR-IXP-WINDi_r2_v1.2,2013-02-23 16:00:00,
2013-02-23 08:05:00,49.0,41.7,30.16,SSE,159,2.0,3.0,76,0.00,,,0.00,163,HR-IXP-WINDi_r2_v1.2,2013-02-23 16:05:00,
2013-02-23 08:10:00,49.2,41.9,30.15,SSE,157,0.0,3.0,76,0.00,,,0.00,178,HR-IXP-WINDi_r2_v1.2,2013-02-23 16:10:00,
2013-02-23 08:16:00,49.9,41.9,30.16,SE,134,2.0,4.0,74,0.00,,,0.00,193,HR-IXP-WINDi_r2_v1.2,2013-02-23 16:16:00,
2013-02-23 08:21:00,50.2,41.5,30.16,SE,128,1.0,4.0,72,0.00,,,0.00,211,HR-IXP-WINDi_r2_v1.2,2013-02-23 16:21:00,
2013-02-23 08:26:00,51.7,44.0,30.16,SE,128,1.0,4.0,75,0.00,,,0.00,172,HR-IXP-WINDi_r2_v1.2,2013-02-23 16:26:00,
2013-02-23 08:31:00,52.6,43.4,30.15,SE,128,0.0,2.0,71,0.00,,,0.00,250,HR-IXP-WINDi_r2_v1.2,2013-02-23 16:31:00,
2013-02-23 08:36:00,53.2,43.2,30.16,SE,128,0.0,2.0,69,0.00,,,0.00,271,HR-IXP-WINDi_r2_v1.2,2013-02-23 16:36:00,
2013-02-23 08:42:00,53.3,42.6,30.15,SE,128,0.0,2.0,67,0.00,,,0.00,292,HR-IXP-WINDi_r2_v1.2,2013-02-23 16:42:00,
2013-02-23 08:47:00,54.2,43.4,30.15,SE,128,0.0,3.0,67,0.00,,,0.00,294,HR-IXP-WINDi_r2_v1.2,2013-02-23 16:47:00,
2013-02-23 08:52:00,54.8,42.8,30.14,SE,128,2.0,3.0,64,0.00,,,0.00,330,HR-IXP-WINDi_r2_v1.2,2013-02-23 16:52:00,
2013-02-23 08:57:00,54.8,42.4,30.14,SSE,147,0.0,4.0,63,0.00,,,0.00,343,HR-IXP-WINDi_r2_v1.2,2013-02-23 16:57:00,
2013-02-23 09:03:00,55.0,42.2,30.14,SSE,147,3.0,4.0,62,0.00,,,0.00,359,HR-IXP-WINDi_r2_v1.2,2013-02-23 17:03:00,
2013-02-23 09:08:00,54.7,41.0,30.15,SSE,157,2.0,3.0,60,0.00,,,0.00,369,HR-IXP-WINDi_r2_v1.2,2013-02-23 17:08:00,
2013-02-23 09:13:00,55.1,42.3,30.15,WSW,237,1.0,3.0,62,0.00,,,0.00,367,HR-IXP-WINDi_r2_v1.2,2013-02-23 17:13:00,
2013-02-23 09:18:00,56.3,42.1,30.14,WSW,237,1.0,3.0,59,0.00,,,0.00,343,HR-IXP-WINDi_r2_v1.2,2013-02-23 17:18:00,
2013-02-23 09:23:00,55.7,41.5,30.15,WSW,239,3.0,3.0,59,0.00,,,0.00,265,HR-IXP-WINDi_r2_v1.2,2013-02-23 17:23:00,
2013-02-23 09:29:00,56.4,41.8,30.14,SW,220,1.0,3.0,58,0.00,,,0.00,230,HR-IXP-WINDi_r2_v1.2,2013-02-23 17:29:00,
2013-02-23 09:34:00,56.9,42.7,30.14,WSW,238,2.0,3.0,59,0.00,,,0.00,257,HR-IXP-WINDi_r2_v1.2,2013-02-23 17:34:00,
2013-02-23 09:39:00,56.8,42.6,30.14,WSW,242,2.0,3.0,59,0.00,,,0.00,309,HR-IXP-WINDi_r2_v1.2,2013-02-23 17:39:00,
2013-02-23 09:44:00,56.6,42.8,30.14,WSW,245,0.0,3.0,60,0.00,,,0.00,327,HR-IXP-WINDi_r2_v1.2,2013-02-23 17:44:00,
2013-02-23 09:49:00,57.5,42.8,30.14,WSW,248,1.0,3.0,58,0.00,,,0.00,380,HR-IXP-WINDi_r2_v1.2,2013-02-23 17:49:00,
2013-02-23 09:55:00,58.4,43.2,30.14,West,271,3.0,3.0,57,0.00,,,0.00,480,HR-IXP-WINDi_r2_v1.2,2013-02-23 17:55:00,
2013-02-23 10:00:00,58.1,42.9,30.14,West,271,2.0,3.0,57,0.00,,,0.00,555,HR-IXP-WINDi_r2_v1.2,2013-02-23 18:00:00,
2013-02-23 10:05:00,58.4,42.7,30.14,West,271,2.0,3.0,56,0.00,,,0.00,571,HR-IXP-WINDi_r2_v1.2,2013-02-23 18:05:00,
2013-02-23 10:10:00,58.1,42.0,30.14,NNE,16,4.0,5.0,55,0.00,,,0.00,587,HR-IXP-WINDi_r2_v1.2,2013-02-23 18:10:00,
2013-02-23 10:16:00,60.2,42.5,30.14,SSE,161,1.0,5.0,52,0.00,,,0.00,594,HR-IXP-WINDi_r2_v1.2,2013-02-23 18:16:00,
2013-02-23 10:21:00,59.0,42.3,30.14,West,262,0.0,5.0,54,0.00,,,0.00,577,HR-IXP-WINDi_r2_v1.2,2013-02-23 18:21:00,
2013-02-23 10:26:00,58.7,42.5,30.14,West,280,1.0,6.0,55,0.00,,,0.00,533,HR-IXP-WINDi_r2_v1.2,2013-02-23 18:26:00,
2013-02-23 10:31:00,59.4,42.7,30.14,West,267,4.0,6.0,54,0.00,,,0.00,499,HR-IXP-WINDi_r2_v1.2,2013-02-23 18:31:00,
2013-02-23 10:36:00,59.3,42.6,30.14,SW,226,1.0,5.0,54,0.00,,,0.00,513,HR-IXP-WINDi_r2_v1.2,2013-02-23 18:36:00,
2013-02-23 10:41:00,61.0,44.7,30.14,South,183,3.0,5.0,55,0.00,,,0.00,587,HR-IXP-WINDi_r2_v1.2,2013-02-23 18:41:00,
2013-02-23 10:47:00,61.4,43.1,30.13,SSW,203,1.0,7.0,51,0.00,,,0.00,642,HR-IXP-WINDi_r2_v1.2,2013-02-23 18:47:00,
2013-02-23 10:52:00,60.4,41.6,30.13,SSW,197,3.0,7.0,50,0.00,,,0.00,650,HR-IXP-WINDi_r2_v1.2,2013-02-23 18:52:00,
2013-02-23 10:57:00,62.1,42.7,30.13,SW,227,3.0,6.0,49,0.00,,,0.00,663,HR-IXP-WINDi_r2_v1.2,2013-02-23 18:57:00,
2013-02-23 11:02:00,62.6,44.2,30.12,South,176,2.0,5.0,51,0.00,,,0.00,668,HR-IXP-WINDi_r2_v1.2,2013-02-23 19:02:00,
2013-02-23 11:08:00,61.3,43.5,30.12,SSE,164,3.0,8.0,52,0.00,,,0.00,673,HR-IXP-WINDi_r2_v1.2,2013-02-23 19:08:00,
2013-02-23 11:13:00,62.6,43.7,30.11,South,181,1.0,8.0,50,0.00,,,0.00,679,HR-IXP-WINDi_r2_v1.2,2013-02-23 19:13:00,
2013-02-23 11:18:00,61.7,43.3,30.11,WSW,248,2.0,5.0,51,0.00,,,0.00,682,HR-IXP-WINDi_r2_v1.2,2013-02-23 19:18:00,
2013-02-23 11:24:00,62.9,44.5,30.11,SSW,203,5.0,5.0,51,0.00,,,0.00,682,HR-IXP-WINDi_r2_v1.2,2013-02-23 19:24:00,
2013-02-23 11:29:00,62.3,44.4,30.11,West,267,3.0,6.0,52,0.00,,,0.00,694,HR-IXP-WINDi_r2_v1.2,2013-02-23 19:29:00,
2013-02-23 11:34:00,62.0,43.1,30.10,SSW,192,5.0,11.0,50,0.00,,,0.00,694,HR-IXP-WINDi_r2_v1.2,2013-02-23 19:34:00,
2013-02-23 11:39:00,62.2,42.2,30.10,SW,229,3.0,11.0,48,0.00,,,0.00,703,HR-IXP-WINDi_r2_v1.2,2013-02-23 19:39:00,
2013-02-23 11:45:00,62.4,41.9,30.10,South,186,2.0,7.0,47,0.00,,,0.00,707,HR-IXP-WINDi_r2_v1.2,2013-02-23 19:45:00,
2013-02-23 11:50:00,62.3,41.2,30.10,WSW,237,7.0,11.0,46,0.00,,,0.00,707,HR-IXP-WINDi_r2_v1.2,2013-02-23 19:50:00,
2013-02-23 11:55:00,61.6,42.2,30.09,SSW,208,3.0,11.0,49,0.00,,,0.00,703,HR-IXP-WINDi_r2_v1.2,2013-02-23 19:55:00,
2013-02-23 12:00:00,61.8,41.9,30.09,SW,219,3.0,8.0,48,0.00,,,0.00,705,HR-IXP-WINDi_r2_v1.2,2013-02-23 20:00:00,
2013-02-23 12:06:00,62.0,42.6,30.08,WSW,254,1.0,7.0,49,0.00,,,0.00,705,HR-IXP-WINDi_r2_v1.2,2013-02-23 20:06:00,
2013-02-23 12:11:00,61.7,43.3,30.08,WSW,238,3.0,7.0,51,0.00,,,0.00,707,HR-IXP-WINDi_r2_v1.2,2013-02-23 20:11:00,
2013-02-23 12:16:00,61.8,42.9,30.08,South,175,1.0,8.0,50,0.00,,,0.00,705,HR-IXP-WINDi_r2_v1.2,2013-02-23 20:16:00,
2013-02-23 12:21:00,62.2,43.8,30.07,SW,216,2.0,8.0,51,0.00,,,0.00,703,HR-IXP-WINDi_r2_v1.2,2013-02-23 20:21:00,
2013-02-23 12:26:00,62.1,45.2,30.07,SW,215,4.0,9.0,54,0.00,,,0.00,703,HR-IXP-WINDi_r2_v1.2,2013-02-23 20:26:00,
2013-02-23 12:31:00,62.9,45.0,30.06,South,178,3.0,9.0,52,0.00,,,0.00,701,HR-IXP-WINDi_r2_v1.2,2013-02-23 20:31:00,
2013-02-23 12:37:00,62.4,45.5,30.06,SSW,207,5.0,10.0,54,0.00,,,0.00,696,HR-IXP-WINDi_r2_v1.2,2013-02-23 20:37:00,
2013-02-23 12:42:00,62.0,45.6,30.06,West,261,5.0,10.0,55,0.00,,,0.00,691,HR-IXP-WINDi_r2_v1.2,2013-02-23 20:42:00,
2013-02-23 12:47:00,61.8,44.9,30.06,WSW,253,3.0,10.0,54,0.00,,,0.00,687,HR-IXP-WINDi_r2_v1.2,2013-02-23 20:47:00,
2013-02-23 12:52:00,62.0,45.6,30.05,SSW,196,4.0,10.0,55,0.00,,,0.00,680,HR-IXP-WINDi_r2_v1.2,2013-02-23 20:52:00,
2013-02-23 12:57:00,61.8,46.8,30.05,SW,221,8.0,10.0,58,0.00,,,0.00,671,HR-IXP-WINDi_r2_v1.2,2013-02-23 20:57:00,
2013-02-23 13:02:00,61.6,46.6,30.05,WSW,248,3.0,11.0,58,0.00,,,0.00,663,HR-IXP-WINDi_r2_v1.2,2013-02-23 21:02:00,
2013-02-23 13:07:00,61.6,47.1,30.04,SSW,202,7.0,12.0,59,0.00,,,0.00,659,HR-IXP-WINDi_r2_v1.2,2013-02-23 21:07:00,
2013-02-23 13:13:00,61.7,47.6,30.04,SSW,206,4.0,12.0,60,0.00,,,0.00,654,HR-IXP-WINDi_r2_v1.2,2013-02-23 21:13:00,
2013-02-23 13:18:00,61.4,48.6,30.04,West,259,4.0,12.0,63,0.00,,,0.00,645,HR-IXP-WINDi_r2_v1.2,2013-02-23 21:18:00,
2013-02-23 13:23:00,60.9,48.2,30.03,SW,226,5.0,12.0,63,0.00,,,0.00,638,HR-IXP-WINDi_r2_v1.2,2013-02-23 21:23:00,
2013-02-23 13:28:00,60.5,48.6,30.03,SW,226,5.0,12.0,65,0.00,,,0.00,635,HR-IXP-WINDi_r2_v1.2,2013-02-23 21:28:00,
2013-02-23 13:33:00,61.2,48.9,30.02,SW,222,5.0,12.0,64,0.00,,,0.00,629,HR-IXP-WINDi_r2_v1.2,2013-02-23 21:33:00,
2013-02-23 13:39:00,61.1,48.4,30.02,SW,224,10.0,15.0,63,0.00,,,0.00,619,HR-IXP-WINDi_r2_v1.2,2013-02-23 21:39:00,
2013-02-23 13:44:00,60.7,46.7,30.02,SSW,209,7.0,15.0,60,0.00,,,0.00,612,HR-IXP-WINDi_r2_v1.2,2013-02-23 21:44:00,
2013-02-23 13:49:00,61.1,46.2,30.01,South,182,5.0,12.0,58,0.00,,,0.00,608,HR-IXP-WINDi_r2_v1.2,2013-02-23 21:49:00,
2013-02-23 13:54:00,61.1,46.6,30.01,SW,216,10.0,12.0,59,0.00,,,0.00,594,HR-IXP-WINDi_r2_v1.2,2013-02-23 21:54:00,
2013-02-23 13:59:00,61.5,46.1,30.01,SW,221,5.0,11.0,57,0.00,,,0.00,587,HR-IXP-WINDi_r2_v1.2,2013-02-23 21:59:00,
2013-02-23 14:05:00,61.7,47.6,30.01,SSW,205,7.0,10.0,60,0.00,,,0.00,577,HR-IXP-WINDi_r2_v1.2,2013-02-23 22:05:00,
2013-02-23 14:10:00,61.9,44.5,30.00,South,190,6.0,10.0,53,0.00,,,0.00,568,HR-IXP-WINDi_r2_v1.2,2013-02-23 22:10:00,
2013-02-23 14:15:00,61.7,44.3,30.00,SSW,205,5.0,12.0,53,0.00,,,0.00,559,HR-IXP-WINDi_r2_v1.2,2013-02-23 22:15:00,
2013-02-23 14:20:00,61.8,44.4,29.99,SW,227,9.0,12.0,53,0.00,,,0.00,550,HR-IXP-WINDi_r2_v1.2,2013-02-23 22:20:00,
2013-02-23 14:26:00,61.4,43.1,29.99,SW,224,8.0,12.0,51,0.00,,,0.00,538,HR-IXP-WINDi_r2_v1.2,2013-02-23 22:26:00,
2013-02-23 14:31:00,61.6,44.3,29.99,WSW,237,4.0,12.0,53,0.00,,,0.00,522,HR-IXP-WINDi_r2_v1.2,2013-02-23 22:31:00,
2013-02-23 14:36:00,62.3,46.4,29.99,SW,232,3.0,11.0,56,0.00,,,0.00,513,HR-IXP-WINDi_r2_v1.2,2013-02-23 22:36:00,
2013-02-23 14:41:00,61.7,45.8,29.99,West,266,4.0,10.0,56,0.00,,,0.00,499,HR-IXP-WINDi_r2_v1.2,2013-02-23 22:41:00,
2013-02-23 14:46:00,61.6,46.2,29.99,West,259,5.0,11.0,57,0.00,,,0.00,476,HR-IXP-WINDi_r2_v1.2,2013-02-23 22:46:00,
2013-02-23 14:52:00,61.5,47.0,29.99,SSW,209,4.0,12.0,59,0.00,,,0.00,448,HR-IXP-WINDi_r2_v1.2,2013-02-23 22:52:00,
2013-02-23 14:57:00,61.1,47.1,29.99,West,263,6.0,12.0,60,0.00,,,0.00,415,HR-IXP-WINDi_r2_v1.2,2013-02-23 22:57:00,
2013-02-23 15:02:00,61.5,48.3,29.98,SW,225,6.0,11.0,62,0.00,,,0.00,369,HR-IXP-WINDi_r2_v1.2,2013-02-23 23:02:00,
2013-02-23 15:07:00,61.4,48.2,29.98,SW,218,2.0,10.0,62,0.00,,,0.00,239,HR-IXP-WINDi_r2_v1.2,2013-02-23 23:07:00,
2013-02-23 15:12:00,60.8,48.1,29.98,WSW,242,4.0,11.0,63,0.00,,,0.00,207,HR-IXP-WINDi_r2_v1.2,2013-02-23 23:12:00,
2013-02-23 15:17:00,60.9,49.0,29.98,SW,214,9.0,11.0,65,0.00,,,0.00,257,HR-IXP-WINDi_r2_v1.2,2013-02-23 23:17:00,
2013-02-23 15:22:00,60.4,48.5,29.98,WSW,240,3.0,12.0,65,0.00,,,0.00,274,HR-IXP-WINDi_r2_v1.2,2013-02-23 23:22:00,
2013-02-23 15:27:00,60.1,49.1,29.98,SSW,195,5.0,12.0,67,0.00,,,0.00,241,HR-IXP-WINDi_r2_v1.2,2013-02-23 23:27:00,
2013-02-23 15:32:00,60.3,49.6,29.98,WSW,254,4.0,11.0,68,0.00,,,0.00,257,HR-IXP-WINDi_r2_v1.2,2013-02-23 23:32:00,
2013-02-23 15:38:00,60.5,49.8,29.97,SW,220,6.0,11.0,68,0.00,,,0.00,297,HR-IXP-WINDi_r2_v1.2,2013-02-23 23:38:00,
2013-02-23 15:43:00,60.2,49.5,29.97,South,171,3.0,11.0,68,0.00,,,0.00,294,HR-IXP-WINDi_r2_v1.2,2013-02-23 23:43:00,
2013-02-23 15:48:00,60.4,50.1,29.97,SSW,208,8.0,11.0,69,0.00,,,0.00,287,HR-IXP-WINDi_r2_v1.2,2013-02-23 23:48:00,
2013-02-23 15:53:00,60.2,49.9,29.97,SW,232,4.0,10.0,69,0.00,,,0.00,281,HR-IXP-WINDi_r2_v1.2,2013-02-23 23:53:00,
2013-02-23 15:59:00,60.0,50.1,29.96,SSW,196,8.0,12.0,70,0.00,,,0.00,272,HR-IXP-WINDi_r2_v1.2,2013-02-23 23:59:00,
2013-02-23 16:04:00,59.8,49.9,29.96,SW,234,3.0,12.0,70,0.00,,,0.00,260,HR-IXP-WINDi_r2_v1.2,2013-02-24 00:04:00,
2013-02-23 16:09:00,59.5,49.7,29.97,SSW,213,6.0,11.0,70,0.00,,,0.00,243,HR-IXP-WINDi_r2_v1.2,2013-02-24 00:09:00,
2013-02-23 16:14:00,59.7,50.2,29.96,SSW,192,2.0,11.0,71,0.00,,,0.00,230,HR-IXP-WINDi_r2_v1.2,2013-02-24 00:14:00,
2013-02-23 16:19:00,59.5,49.7,29.96,SW,231,5.0,11.0,70,0.00,,,0.00,213,HR-IXP-WINDi_r2_v1.2,2013-02-24 00:19:00,
2013-02-23 16:24:00,59.2,49.4,29.96,SW,219,9.0,11.0,70,0.00,,,0.00,190,HR-IXP-WINDi_r2_v1.2,2013-02-24 00:24:00,
2013-02-23 16:30:00,58.6,48.8,29.96,SSW,206,6.0,11.0,70,0.00,,,0.00,176,HR-IXP-WINDi_r2_v1.2,2013-02-24 00:30:00,
2013-02-23 16:35:00,58.7,48.9,29.96,SW,217,3.0,11.0,70,0.00,,,0.00,160,HR-IXP-WINDi_r2_v1.2,2013-02-24 00:35:00,
2013-02-23 16:40:00,58.7,48.9,29.96,SSW,200,5.0,10.0,70,0.00,,,0.00,142,HR-IXP-WINDi_r2_v1.2,2013-02-24 00:40:00,
2013-02-23 16:45:00,58.3,48.9,29.96,South,188,4.0,10.0,71,0.00,,,0.00,125,HR-IXP-WINDi_r2_v1.2,2013-02-24 00:45:00,
2013-02-23 16:51:00,57.9,49.2,29.96,South,180,6.0,11.0,73,0.00,,,0.00,111,HR-IXP-WINDi_r2_v1.2,2013-02-24 00:51:00,
2013-02-23 16:56:00,57.6,49.3,29.96,WSW,238,8.0,11.0,74,0.00,,,0.00,97,HR-IXP-WINDi_r2_v1.2,2013-02-24 00:56:00,
2013-02-23 17:01:00,57.2,48.9,29.96,SSW,210,5.0,10.0,74,0.00,,,0.00,84,HR-IXP-WINDi_r2_v1.2,2013-02-24 01:01:00,
2013-02-23 17:06:00,57.1,48.8,29.96,SSW,201,8.0,10.0,74,0.00,,,0.00,67,HR-IXP-WINDi_r2_v1.2,2013-02-24 01:06:00,
2013-02-23 17:11:00,56.9,49.0,29.96,SW,215,9.0,11.0,75,0.00,,,0.00,56,HR-IXP-WINDi_r2_v1.2,2013-02-24 01:11:00,
2013-02-23 17:16:00,56.7,48.8,29.96,SSW,213,5.0,11.0,75,0.00,,,0.00,42,HR-IXP-WINDi_r2_v1.2,2013-02-24 01:16:00,
2013-02-23 17:21:00,56.6,48.7,29.96,SSW,213,4.0,10.0,75,0.00,,,0.00,32,HR-IXP-WINDi_r2_v1.2,2013-02-24 01:21:00,
2013-02-23 17:27:00,56.3,48.4,29.96,SW,232,6.0,9.0,75,0.00,,,0.00,23,HR-IXP-WINDi_r2_v1.2,2013-02-24 01:27:00,
2013-02-23 17:32:00,56.2,49.0,29.96,SW,219,6.0,9.0,77,0.00,,,0.00,16,HR-IXP-WINDi_r2_v1.2,2013-02-24 01:32:00,
2013-02-23 17:37:00,56.1,49.3,29.96,SW,221,6.0,8.0,78,0.00,,,0.00,9,HR-IXP-WINDi_r2_v1.2,2013-02-24 01:37:00,
2013-02-23 17:42:00,55.9,49.4,29.97,SSW,209,2.0,7.0,79,0.00,,,0.00,5,HR-IXP-WINDi_r2_v1.2,2013-02-24 01:42:00,
2013-02-23 17:47:00,55.7,49.9,29.97,SW,216,4.0,7.0,81,0.00,,,0.00,0,HR-IXP-WINDi_r2_v1.2,2013-02-24 01:47:00,
2013-02-23 17:53:00,55.6,50.1,29.96,SW,217,4.0,8.0,82,0.00,,,0.00,0,HR-IXP-WINDi_r2_v1.2,2013-02-24 01:53:00,
2013-02-23 17:58:00,55.6,50.5,29.96,SSW,198,3.0,8.0,83,0.00,,,0.00,0,HR-IXP-WINDi_r2_v1.2,2013-02-24 01:58:00,
2013-02-23 18:03:00,55.4,50.6,29.96,SSW,207,3.0,8.0,84,0.00,,,0.00,0,HR-IXP-WINDi_r2_v1.2,2013-02-24 02:03:00,
2013-02-23 18:08:00,55.3,50.5,29.96,SSW,203,3.0,8.0,84,0.00,,,0.00,0,HR-IXP-WINDi_r2_v1.2,2013-02-24 02:08:00,
2013-02-23 18:13:00,55.2,50.7,29.97,South,182,0.0,8.0,85,0.00,,,0.00,0,HR-IXP-WINDi_r2_v1.2,2013-02-24 02:13:00,
2013-02-23 18:19:00,55.1,50.6,29.97,SSW,208,2.0,5.0,85,0.00,,,0.00,0,HR-IXP-WINDi_r2_v1.2,2013-02-24 02:19:00,
2013-02-23 18:24:00,55.1,50.9,29.97,SSW,213,2.0,5.0,86,0.00,,,0.00,0,HR-IXP-WINDi_r2_v1.2,2013-02-24 02:24:00,
2013-02-23 18:29:00,55.1,50.9,29.97,South,188,2.0,5.0,86,0.00,,,0.00,0,HR-IXP-WINDi_r2_v1.2,2013-02-24 02:29:00,
2013-02-23 18:34:00,55.0,50.8,29.98,South,182,0.0,4.0,86,0.00,,,0.00,0,HR-IXP-WINDi_r2_v1.2,2013-02-24 02:34:00,
2013-02-23 18:40:00,54.8,50.6,29.98,South,182,2.0,3.0,86,0.00,,,0.00,0,HR-IXP-WINDi_r2_v1.2,2013-02-24 02:40:00,
2013-02-23 18:45:00,54.7,50.5,29.98,South,182,1.0,3.0,86,0.00,,,0.00,0,HR-IXP-WINDi_r2_v1.2,2013-02-24 02:45:00,
2013-02-23 18:50:00,54.6,50.4,29.98,South,182,1.0,2.0,86,0.00,,,0.00,0,HR-IXP-WINDi_r2_v1.2,2013-02-24 02:50:00,
2013-02-23 18:55:00,54.5,50.3,29.98,South,169,3.0,3.0,86,0.00,,,0.00,0,HR-IXP-WINDi_r2_v1.2,2013-02-24 02:55:00,
2013-02-23 19:00:00,54.4,50.5,29.98,SSE,163,1.0,3.0,87,0.00,,,0.00,0,HR-IXP-WINDi_r2_v1.2,2013-02-24 03:00:00,
2013-02-23 19:06:00,54.4,50.5,29.98,SSE,156,0.0,3.0,87,0.00,,,0.00,0,HR-IXP-WINDi_r2_v1.2,2013-02-24 03:06:00,
2013-02-23 19:11:00,54.5,50.6,29.98,SSE,156,1.0,3.0,87,0.00,,,0.00,0,HR-IXP-WINDi_r2_v1.2,2013-02-24 03:11:00,
2013-02-23 19:16:00,54.4,50.9,29.98,SSE,156,2.0,2.0,88,0.00,,,0.00,0,HR-IXP-WINDi_r2_v1.2,2013-02-24 03:16:00,
2013-02-23 19:21:00,54.5,51.0,29.98,SSE,156,0.0,3.0,88,0.00,,,0.00,0,HR-IXP-WINDi_r2_v1.2,2013-02-24 03:21:00,
2013-02-23 19:26:00,54.2,50.7,29.98,SSE,156,0.0,3.0,88,0.00,,,0.00,0,HR-IXP-WINDi_r2_v1.2,2013-02-24 03:26:00,
2013-02-23 19:32:00,54.2,50.7,29.99,SSE,156,0.0,2.0,88,0.00,,,0.00,0,HR-IXP-WINDi_r2_v1.2,2013-02-24 03:32:00,
2013-02-23 19:37:00,54.0,50.5,29.98,SSE,156,2.0,2.0,88,0.00,,,0.00,0,HR-IXP-WINDi_r2_v1.2,2013-02-24 03:37:00,
2013-02-23 19:42:00,53.9,50.4,29.98,SSE,156,3.0,3.0,88,0.00,,,0.00,0,HR-IXP-WINDi_r2_v1.2,2013-02-24 03:42:00,
2013-02-23 19:47:00,53.9,50.4,29.98,SSE,156,1.0,3.0,88,0.00,,,0.00,0,HR-IXP-WINDi_r2_v1.2,2013-02-24 03:47:00,
2013-02-23 19:53:00,53.8,50.3,29.99,SSE,156,0.0,3.0,88,0.00,,,0.00,0,HR-IXP-WINDi_r2_v1.2,2013-02-24 03:53:00,
2013-02-23 19:58:00,53.6,50.1,29.99,SSE,148,2.0,3.0,88,0.00,,,0.00,0,HR-IXP-WINDi_r2_v1.2,2013-02-24 03:58:00,
2013-02-23 20:03:00,53.5,50.0,29.98,SE,137,0.0,4.0,88,0.00,,,0.00,0,HR-IXP-WINDi_r2_v1.2,2013-02-24 04:03:00,
2013-02-23 20:08:00,53.3,49.8,29.98,SE,137,1.0,4.0,88,0.00,,,0.00,0,HR-IXP-WINDi_r2_v1.2,2013-02-24 04:08:00,
2013-02-23 20:13:00,53.4,49.9,29.97,SSE,158,3.0,5.0,88,0.00,,,0.00,0,HR-IXP-WINDi_r2_v1.2,2013-02-24 04:13:00,
2013-02-23 20:18:00,53.4,49.9,29.98,SE,137,1.0,6.0,88,0.00,,,0.00,0,HR-IXP-WINDi_r2_v1.2,2013-02-24 04:18:00,
2013-02-23 20:23:00,53.3,49.8,29.98,SE,128,1.0,6.0,88,0.00,,,0.00,0,HR-IXP-WINDi_r2_v1.2,2013-02-24 04:23:00,
2013-02-23 20:28:00,53.4,49.9,29.98,SE,130,0.0,3.0,88,0.00,,,0.00,0,HR-IXP-WINDi_r2_v1.2,2013-02-24 04:28:00,
2013-02-23 20:34:00,53.3,49.8,29.99,SSE,153,2.0,3.0,88,0.00,,,0.00,0,HR-IXP-WINDi_r2_v1.2,2013-02-24 04:34:00,
2013-02-23 20:39:00,53.2,49.7,29.99,SSE,153,0.0,3.0,88,0.00,,,0.00,0,HR-IXP-WINDi_r2_v1.2,2013-02-24 04:39:00,
2013-02-23 20:44:00,53.1,49.6,29.99,SSE,153,1.0,2.0,88,0.00,,,0.00,0,HR-IXP-WINDi_r2_v1.2,2013-02-24 04:44:00,
2013-02-23 20:49:00,52.6,49.1,30.00,SSE,150,1.0,3.0,88,0.00,,,0.00,0,HR-IXP-WINDi_r2_v1.2,2013-02-24 04:49:00,
2013-02-23 20:54:00,52.2,48.7,30.01,SSE,148,2.0,3.0,88,0.00,,,0.00,0,HR-IXP-WINDi_r2_v1.2,2013-02-24 04:54:00,
2013-02-23 20:59:00,52.4,49.2,30.00,SSE,148,0.0,2.0,89,0.00,,,0.00,0,HR-IXP-WINDi_r2_v1.2,2013-02-24 04:59:00,
2013-02-23 21:00:00,52.4,49.2,30.00,SSE,148,0.0,2.0,89,0.00,,,0.00,0,HR-IXP-WINDi_r2_v1.2,2013-02-24 05:00:00,
2013-02-23 21:05:00,52.4,49.2,30.00,SSE,148,0.0,2.0,89,0.00,,,0.00,0,HR-IXP-WINDi_r2_v1.2,2013-02-24 05:05:00,
2013-02-23 21:10:00,52.2,48.7,30.00,SSE,148,0.0,1.0,88,0.00,,,0.00,0,HR-IXP-WINDi_r2_v1.2,2013-02-24 05:10:00,
2013-02-23 21:15:00,51.7,48.5,30.00,SSE,148,1.0,1.0,89,0.00,,,0.00,0,HR-IXP-WINDi_r2_v1.2,2013-02-24 05:15:00,
2013-02-23 21:20:00,51.9,48.7,30.00,SSE,148,0.0,1.0,89,0.00,,,0.00,0,HR-IXP-WINDi_r2_v1.2,2013-02-24 05:20:00,
2013-02-23 21:26:00,51.8,48.6,30.00,SSE,148,0.0,1.0,89,0.00,,,0.00,0,HR-IXP-WINDi_r2_v1.2,2013-02-24 05:26:00,
2013-02-23 21:31:00,52.1,48.9,30.00,SSE,148,0.0,1.0,89,0.00,,,0.00,0,HR-IXP-WINDi_r2_v1.2,2013-02-24 05:31:00,
2013-02-23 21:36:00,51.6,48.4,30.01,SSE,148,1.0,2.0,89,0.00,,,0.00,0,HR-IXP-WINDi_r2_v1.2,2013-02-24 05:36:00,
2013-02-23 21:41:00,50.9,47.7,30.01,SSE,148,2.0,2.0,89,0.00,,,0.00,0,HR-IXP-WINDi_r2_v1.2,2013-02-24 05:41:00,
2013-02-23 21:46:00,51.1,47.9,30.00,SSE,148,0.0,2.0,89,0.00,,,0.00,0,HR-IXP-WINDi_r2_v1.2,2013-02-24 05:46:00,
2013-02-23 21:51:00,51.3,48.4,30.00,SSE,148,0.0,2.0,90,0.00,,,0.00,0,HR-IXP-WINDi_r2_v1.2,2013-02-24 05:51:00,
2013-02-23 21:57:00,51.3,48.4,30.00,SSE,148,0.0,2.0,90,0.00,,,0.00,0,HR-IXP-WINDi_r2_v1.2,2013-02-24 05:57:00,
2013-02-23 22:02:00,51.2,48.3,30.01,SSE,148,0.0,2.0,90,0.00,,,0.00,0,HR-IXP-WINDi_r2_v1.2,2013-02-24 06:02:00,
2013-02-23 22:07:00,51.3,48.4,30.01,SSE,148,0.0,2.0,90,0.00,,,0.00,0,HR-IXP-WINDi_r2_v1.2,2013-02-24 06:07:00,
2013-02-23 22:13:00,50.9,47.7,30.01,SSE,148,0.0,1.0,89,0.00,,,0.00,0,HR-IXP-WINDi_r2_v1.2,2013-02-24 06:13:00,
2013-02-23 22:18:00,50.6,47.7,30.01,SSE,148,0.0,1.0,90,0.00,,,0.00,0,HR-IXP-WINDi_r2_v1.2,2013-02-24 06:18:00,
2013-02-23 22:23:00,50.3,47.4,30.01,SSE,148,0.0,1.0,90,0.00,,,0.00,0,HR-IXP-WINDi_r2_v1.2,2013-02-24 06:23:00,
2013-02-23 22:28:00,50.1,47.2,30.02,SSE,148,1.0,2.0,90,0.00,,,0.00,0,HR-IXP-WINDi_r2_v1.2,2013-02-24 06:28:00,
2013-02-23 22:33:00,50.1,47.2,30.02,SSE,148,0.0,2.0,90,0.00,,,0.00,0,HR-IXP-WINDi_r2_v1.2,2013-02-24 06:33:00,
2013-02-23 22:39:00,50.5,47.9,30.01,SSE,148,0.0,1.0,91,0.00,,,0.00,0,HR-IXP-WINDi_r2_v1.2,2013-02-24 06:39:00,
2013-02-23 22:44:00,50.6,47.7,30.02,SSE,148,0.0,1.0,90,0.00,,,0.00,0,HR-IXP-WINDi_r2_v1.2,2013-02-24 06:44:00,
2013-02-23 22:49:00,50.6,47.7,30.02,SSE,148,0.0,1.0,90,0.00,,,0.00,0,HR-IXP-WINDi_r2_v1.2,2013-02-24 06:49:00,
2013-02-23 22:55:00,50.8,47.9,30.02,SSE,148,0.0,1.0,90,0.00,,,0.00,0,HR-IXP-WINDi_r2_v1.2,2013-02-24 06:55:00,
2013-02-23 23:00:00,50.5,47.3,30.02,SSE,148,0.0,2.0,89,0.00,,,0.00,0,HR-IXP-WINDi_r2_v1.2,2013-02-24 07:00:00,
2013-02-23 23:05:00,50.1,46.9,30.01,SSE,148,0.0,2.0,89,0.00,,,0.00,0,HR-IXP-WINDi_r2_v1.2,2013-02-24 07:05:00,
2013-02-23 23:10:00,50.1,46.9,30.01,SSE,148,0.0,2.0,89,0.00,,,0.00,0,HR-IXP-WINDi_r2_v1.2,2013-02-24 07:10:00,
2013-02-23 23:15:00,49.9,46.7,30.01,SSE,148,2.0,3.0,89,0.00,,,0.00,0,HR-IXP-WINDi_r2_v1.2,2013-02-24 07:15:00,
2013-02-23 23:21:00,49.9,46.7,30.01,SSE,148,0.0,3.0,89,0.00,,,0.00,0,HR-IXP-WINDi_r2_v1.2,2013-02-24 07:21:00,
2013-02-23 23:26:00,50.1,46.9,30.01,SSE,148,0.0,3.0,89,0.00,,,0.00,0,HR-IXP-WINDi_r2_v1.2,2013-02-24 07:26:00,
2013-02-23 23:31:00,49.9,46.7,30.01,SSE,148,0.0,0.0,89,0.00,,,0.00,0,HR-IXP-WINDi_r2_v1.2,2013-02-24 07:31:00,
2013-02-23 23:36:00,49.6,46.4,30.01,SSE,148,0.0,1.0,89,0.00,,,0.00,0,HR-IXP-WINDi_r2_v1.2,2013-02-24 07:36:00,
2013-02-23 23:42:00,48.9,45.7,30.01,SSE,148,0.0,1.0,89,0.00,,,0.00,0,HR-IXP-WINDi_r2_v1.2,2013-02-24 07:42:00,
2013-02-23 23:47:00,48.5,45.3,30.02,SSE,148,0.0,1.0,89,0.00,,,0.00,0,HR-IXP-WINDi_r2_v1.2,2013-02-24 07:47:00,
2013-02-23 23:53:00,48.3,45.2,30.02,SSE,148,0.0,2.0,89,0.00,,,0.00,0,HR-IXP-WINDi_r2_v1.2,2013-02-24 07:53:00,
2013-02-23 23:58:00,48.5,45.6,30.02,SSE,148,0.0,2.0,90,0.00,,,0.00,0,HR-IXP-WINDi_r2_v1.2,2013-02-24 07:58:00,